sensor_id;sensor_type;location;lat;lon;timestamp;pressure;altitude;pressure_sealevel;temperature;humidity
81151;BME280;70629;-26.026;27.976;2023-07-31T00:00:02;87106.84;;;3.48;56.91
81151;BME280;70629;-26.026;27.976;2023-07-31T00:01:37;87110.22;;;3.17;58.73
81151;BME280;70629;-26.026;27.976;2023-07-31T00:03:12;87106.88;;;2.61;59.08
81151;BME280;70629;-26.026;27.976;2023-07-31T00:04:47;87104.09;;;2.99;58.24
81151;BME280;70629;-26.026;27.976;2023-07-31T00:06:23;87105.94;;;2.81;57.95
81151;BME280;70629;-26.026;27.976;2023-07-31T00:07:58;87110.44;;;2.63;60.27
81151;BME280;70629;-26.026;27.976;2023-07-31T00:09:33;87106.16;;;2.60;59.87
81151;BME280;70629;-26.026;27.976;2023-07-31T00:11:08;87103.63;;;2.85;58.82
81151;BME280;70629;-26.026;27.976;2023-07-31T00:12:44;87115.28;;;2.90;59.14
81151;BME280;70629;-26.026;27.976;2023-07-31T00:14:19;87109.38;;;3.06;59.53
81151;BME280;70629;-26.026;27.976;2023-07-31T00:15:54;87107.50;;;2.84;59.26
81151;BME280;70629;-26.026;27.976;2023-07-31T00:17:29;87110.78;;;2.60;60.17
81151;BME280;70629;-26.026;27.976;2023-07-31T00:19:04;87117.69;;;2.55;61.64
81151;BME280;70629;-26.026;27.976;2023-07-31T00:20:39;87116.50;;;2.26;61.99
81151;BME280;70629;-26.026;27.976;2023-07-31T00:22:14;87113.78;;;2.56;61.41
81151;BME280;70629;-26.026;27.976;2023-07-31T00:23:49;87112.34;;;2.71;61.09
81151;BME280;70629;-26.026;27.976;2023-07-31T00:25:23;87115.38;;;2.59;60.81
81151;BME280;70629;-26.026;27.976;2023-07-31T00:26:58;87118.09;;;2.99;61.37
81151;BME280;70629;-26.026;27.976;2023-07-31T00:28:33;87113.50;;;2.30;61.73
81151;BME280;70629;-26.026;27.976;2023-07-31T00:30:08;87120.16;;;2.61;62.76
81151;BME280;70629;-26.026;27.976;2023-07-31T00:31:44;87115.44;;;2.37;61.71
81151;BME280;70629;-26.026;27.976;2023-07-31T00:33:19;87122.34;;;2.25;62.41
81151;BME280;70629;-26.026;27.976;2023-07-31T00:34:53;87124.34;;;2.79;60.97
81151;BME280;70629;-26.026;27.976;2023-07-31T00:36:28;87117.41;;;2.13;62.36
81151;BME280;70629;-26.026;27.976;2023-07-31T00:38:03;87119.63;;;2.55;61.34
81151;BME280;70629;-26.026;27.976;2023-07-31T00:39:38;87114.44;;;2.80;60.62
81151;BME280;70629;-26.026;27.976;2023-07-31T00:41:12;87113.28;;;2.43;61.71
81151;BME280;70629;-26.026;27.976;2023-07-31T00:42:47;87117.13;;;2.72;61.02
81151;BME280;70629;-26.026;27.976;2023-07-31T00:44:22;87115.06;;;2.48;61.74
81151;BME280;70629;-26.026;27.976;2023-07-31T00:45:57;87109.59;;;3.01;60.33
81151;BME280;70629;-26.026;27.976;2023-07-31T00:47:32;87109.78;;;2.25;60.66
81151;BME280;70629;-26.026;27.976;2023-07-31T00:49:09;87112.53;;;2.73;60.33
81151;BME280;70629;-26.026;27.976;2023-07-31T00:50:45;87117.03;;;2.32;61.82
81151;BME280;70629;-26.026;27.976;2023-07-31T00:52:20;87111.03;;;2.24;61.91
81151;BME280;70629;-26.026;27.976;2023-07-31T00:53:55;87117.03;;;2.40;61.57
81151;BME280;70629;-26.026;27.976;2023-07-31T00:55:30;87116.00;;;2.05;61.98
81151;BME280;70629;-26.026;27.976;2023-07-31T00:57:06;87114.41;;;2.02;61.75
81151;BME280;70629;-26.026;27.976;2023-07-31T00:58:42;87107.81;;;2.48;60.70
81151;BME280;70629;-26.026;27.976;2023-07-31T01:00:17;87111.56;;;2.22;59.44
81151;BME280;70629;-26.026;27.976;2023-07-31T01:01:52;87117.22;;;1.66;61.86
81151;BME280;70629;-26.026;27.976;2023-07-31T01:03:27;87109.94;;;1.21;63.81
81151;BME280;70629;-26.026;27.976;2023-07-31T01:05:03;87107.34;;;1.97;61.89
81151;BME280;70629;-26.026;27.976;2023-07-31T01:07:02;87114.59;;;1.89;61.97
81151;BME280;70629;-26.026;27.976;2023-07-31T01:09:09;87109.28;;;2.04;61.47
81151;BME280;70629;-26.026;27.976;2023-07-31T01:10:50;87104.16;;;2.21;61.96
81151;BME280;70629;-26.026;27.976;2023-07-31T01:12:28;87111.25;;;1.73;62.21
81151;BME280;70629;-26.026;27.976;2023-07-31T01:14:04;87110.34;;;1.63;62.08
81151;BME280;70629;-26.026;27.976;2023-07-31T08:10:46;87283.44;;;10.37;31.08
81151;BME280;70629;-26.026;27.976;2023-07-31T08:12:21;87290.78;;;10.37;31.11
81151;BME280;70629;-26.026;27.976;2023-07-31T08:13:55;87287.81;;;10.21;30.70
81151;BME280;70629;-26.026;27.976;2023-07-31T08:15:30;87286.09;;;10.59;29.91
81151;BME280;70629;-26.026;27.976;2023-07-31T08:17:05;87283.88;;;10.67;29.66
81151;BME280;70629;-26.026;27.976;2023-07-31T08:18:40;87281.47;;;10.82;29.80
81151;BME280;70629;-26.026;27.976;2023-07-31T08:20:17;87285.66;;;10.74;29.18
81151;BME280;70629;-26.026;27.976;2023-07-31T08:21:52;87285.03;;;10.96;30.94
81151;BME280;70629;-26.026;27.976;2023-07-31T08:23:30;87278.69;;;10.92;29.23
81151;BME280;70629;-26.026;27.976;2023-07-31T08:25:06;87283.16;;;11.22;29.63
81151;BME280;70629;-26.026;27.976;2023-07-31T08:26:41;87274.63;;;11.49;30.01
81151;BME280;70629;-26.026;27.976;2023-07-31T08:28:16;87289.03;;;11.54;28.01
81151;BME280;70629;-26.026;27.976;2023-07-31T08:29:52;87290.91;;;11.51;28.30
81151;BME280;70629;-26.026;27.976;2023-07-31T08:31:27;87286.59;;;11.58;27.74
81151;BME280;70629;-26.026;27.976;2023-07-31T08:33:03;87295.59;;;11.51;27.68
81151;BME280;70629;-26.026;27.976;2023-07-31T08:34:38;87284.13;;;11.73;27.67
81151;BME280;70629;-26.026;27.976;2023-07-31T08:36:13;87291.03;;;11.88;28.00
81151;BME280;70629;-26.026;27.976;2023-07-31T08:37:48;87288.09;;;11.61;27.94
81151;BME280;70629;-26.026;27.976;2023-07-31T08:39:23;87300.31;;;11.85;27.47
81151;BME280;70629;-26.026;27.976;2023-07-31T08:40:58;87286.59;;;11.58;26.64
81151;BME280;70629;-26.026;27.976;2023-07-31T08:42:33;87287.19;;;11.91;26.81
81151;BME280;70629;-26.026;27.976;2023-07-31T08:44:08;87281.41;;;12.08;27.33
81151;BME280;70629;-26.026;27.976;2023-07-31T08:45:44;87285.19;;;11.80;26.93
81151;BME280;70629;-26.026;27.976;2023-07-31T08:47:20;87282.91;;;12.11;26.84
81151;BME280;70629;-26.026;27.976;2023-07-31T08:48:57;87281.44;;;12.33;26.85
81151;BME280;70629;-26.026;27.976;2023-07-31T08:50:33;87279.50;;;12.22;26.63
81151;BME280;70629;-26.026;27.976;2023-07-31T08:52:09;87282.81;;;12.09;27.20
81151;BME280;70629;-26.026;27.976;2023-07-31T08:53:44;87279.19;;;12.05;26.96
81151;BME280;70629;-26.026;27.976;2023-07-31T08:55:19;87273.41;;;12.22;25.73
81151;BME280;70629;-26.026;27.976;2023-07-31T08:57:01;87274.94;;;12.50;27.23
81151;BME280;70629;-26.026;27.976;2023-07-31T08:58:37;87277.59;;;12.62;26.08
81151;BME280;70629;-26.026;27.976;2023-07-31T09:00:14;87276.84;;;12.73;25.41
81151;BME280;70629;-26.026;27.976;2023-07-31T09:01:50;87269.81;;;12.68;25.50
81151;BME280;70629;-26.026;27.976;2023-07-31T09:03:28;87263.88;;;12.83;25.70
81151;BME280;70629;-26.026;27.976;2023-07-31T09:05:07;87262.34;;;13.05;25.82
81151;BME280;70629;-26.026;27.976;2023-07-31T09:06:43;87261.06;;;12.81;25.09
81151;BME280;70629;-26.026;27.976;2023-07-31T09:08:21;87255.16;;;13.10;24.85
81151;BME280;70629;-26.026;27.976;2023-07-31T09:09:56;87256.00;;;12.87;25.06
81151;BME280;70629;-26.026;27.976;2023-07-31T09:11:31;87242.19;;;12.81;23.78
81151;BME280;70629;-26.026;27.976;2023-07-31T09:13:06;87249.53;;;13.17;24.00
81151;BME280;70629;-26.026;27.976;2023-07-31T09:14:45;87246.31;;;13.21;24.88
81151;BME280;70629;-26.026;27.976;2023-07-31T09:16:28;87241.22;;;13.13;25.39
81151;BME280;70629;-26.026;27.976;2023-07-31T09:18:07;87240.88;;;13.60;24.65
81151;BME280;70629;-26.026;27.976;2023-07-31T09:19:42;87237.03;;;13.38;25.21
81151;BME280;70629;-26.026;27.976;2023-07-31T09:21:18;87232.97;;;13.78;24.97
81151;BME280;70629;-26.026;27.976;2023-07-31T09:22:53;87235.56;;;13.62;25.30
81151;BME280;70629;-26.026;27.976;2023-07-31T09:24:31;87240.22;;;13.21;23.78
81151;BME280;70629;-26.026;27.976;2023-07-31T09:26:06;87237.25;;;13.42;25.50
81151;BME280;70629;-26.026;27.976;2023-07-31T09:27:58;87226.47;;;13.42;25.03
81151;BME280;70629;-26.026;27.976;2023-07-31T09:29:33;87221.97;;;13.60;25.13
81151;BME280;70629;-26.026;27.976;2023-07-31T09:31:08;87206.44;;;13.74;25.42
81151;BME280;70629;-26.026;27.976;2023-07-31T09:32:45;87224.34;;;13.68;24.97
81151;BME280;70629;-26.026;27.976;2023-07-31T09:34:36;87225.84;;;13.98;24.42
81151;BME280;70629;-26.026;27.976;2023-07-31T09:36:15;87221.53;;;13.38;25.59
81151;BME280;70629;-26.026;27.976;2023-07-31T09:37:53;87214.13;;;13.52;26.07
81151;BME280;70629;-26.026;27.976;2023-07-31T09:39:29;87213.84;;;13.74;25.36
81151;BME280;70629;-26.026;27.976;2023-07-31T09:41:05;87211.19;;;14.17;24.65
81151;BME280;70629;-26.026;27.976;2023-07-31T09:42:42;87202.47;;;14.18;24.56
81151;BME280;70629;-26.026;27.976;2023-07-31T09:44:18;87198.81;;;14.70;23.97
81151;BME280;70629;-26.026;27.976;2023-07-31T09:45:56;87200.59;;;14.79;24.27
81151;BME280;70629;-26.026;27.976;2023-07-31T09:47:31;87189.56;;;14.17;23.87
81151;BME280;70629;-26.026;27.976;2023-07-31T09:49:10;87197.75;;;14.19;24.02
81151;BME280;70629;-26.026;27.976;2023-07-31T09:50:47;87188.81;;;14.43;23.84
81151;BME280;70629;-26.026;27.976;2023-07-31T09:52:22;87180.63;;;14.57;24.23
81151;BME280;70629;-26.026;27.976;2023-07-31T09:53:57;87184.31;;;14.64;23.54
81151;BME280;70629;-26.026;27.976;2023-07-31T09:55:33;87179.38;;;14.01;22.83
81151;BME280;70629;-26.026;27.976;2023-07-31T09:57:08;87169.09;;;14.14;25.23
81151;BME280;70629;-26.026;27.976;2023-07-31T09:58:44;87174.91;;;14.22;23.24
81151;BME280;70629;-26.026;27.976;2023-07-31T10:00:20;87167.75;;;14.42;24.12
81151;BME280;70629;-26.026;27.976;2023-07-31T10:01:57;87163.50;;;14.53;24.33
81151;BME280;70629;-26.026;27.976;2023-07-31T10:03:32;87154.50;;;15.09;22.73
81151;BME280;70629;-26.026;27.976;2023-07-31T10:05:08;87161.31;;;14.94;23.19
81151;BME280;70629;-26.026;27.976;2023-07-31T10:06:43;87156.41;;;14.90;23.21
81151;BME280;70629;-26.026;27.976;2023-07-31T10:08:21;87157.47;;;15.46;22.83
81151;BME280;70629;-26.026;27.976;2023-07-31T10:09:59;87149.00;;;15.38;22.46
81151;BME280;70629;-26.026;27.976;2023-07-31T10:11:53;87151.38;;;15.30;21.57
81151;BME280;70629;-26.026;27.976;2023-07-31T10:13:30;87147.84;;;15.43;21.73
81151;BME280;70629;-26.026;27.976;2023-07-31T10:15:07;87155.19;;;15.41;20.83
81151;BME280;70629;-26.026;27.976;2023-07-31T10:16:43;87147.69;;;15.23;21.88
81151;BME280;70629;-26.026;27.976;2023-07-31T10:18:18;87145.94;;;14.99;21.21
81151;BME280;70629;-26.026;27.976;2023-07-31T10:19:56;87143.91;;;15.62;20.91
81151;BME280;70629;-26.026;27.976;2023-07-31T10:21:32;87134.78;;;15.87;21.10
81151;BME280;70629;-26.026;27.976;2023-07-31T10:23:10;87136.66;;;15.66;20.17
81151;BME280;70629;-26.026;27.976;2023-07-31T10:24:46;87130.19;;;15.42;19.09
81151;BME280;70629;-26.026;27.976;2023-07-31T10:26:23;87124.16;;;15.93;20.46
81151;BME280;70629;-26.026;27.976;2023-07-31T10:27:59;87128.56;;;15.84;20.76
81151;BME280;70629;-26.026;27.976;2023-07-31T10:29:35;87128.72;;;15.88;20.85
81151;BME280;70629;-26.026;27.976;2023-07-31T10:31:10;87124.00;;;15.89;20.17
81151;BME280;70629;-26.026;27.976;2023-07-31T10:32:46;87119.38;;;15.91;19.56
81151;BME280;70629;-26.026;27.976;2023-07-31T10:34:23;87116.22;;;16.14;20.44
81151;BME280;70629;-26.026;27.976;2023-07-31T10:36:17;87117.16;;;15.88;19.94
81151;BME280;70629;-26.026;27.976;2023-07-31T10:37:53;87115.28;;;16.08;20.31
81151;BME280;70629;-26.026;27.976;2023-07-31T10:39:36;87110.69;;;15.95;19.84
81151;BME280;70629;-26.026;27.976;2023-07-31T10:41:12;87114.28;;;16.17;20.55
81151;BME280;70629;-26.026;27.976;2023-07-31T10:42:52;87115.44;;;16.12;19.42
81151;BME280;70629;-26.026;27.976;2023-07-31T10:44:28;87101.94;;;16.32;18.74
81151;BME280;70629;-26.026;27.976;2023-07-31T10:46:12;87107.44;;;16.16;19.78
81151;BME280;70629;-26.026;27.976;2023-07-31T10:47:47;87103.31;;;15.97;18.85
81151;BME280;70629;-26.026;27.976;2023-07-31T10:49:22;87101.63;;;16.41;18.85
81151;BME280;70629;-26.026;27.976;2023-07-31T10:50:57;87096.91;;;16.24;19.45
81151;BME280;70629;-26.026;27.976;2023-07-31T10:52:34;87093.56;;;16.25;19.55
81151;BME280;70629;-26.026;27.976;2023-07-31T10:54:14;87106.88;;;16.02;19.47
81151;BME280;70629;-26.026;27.976;2023-07-31T10:55:50;87093.94;;;16.00;19.64
81151;BME280;70629;-26.026;27.976;2023-07-31T10:57:35;87089.28;;;16.20;19.66
81151;BME280;70629;-26.026;27.976;2023-07-31T10:59:10;87093.19;;;16.33;19.87
81151;BME280;70629;-26.026;27.976;2023-07-31T11:00:47;87083.78;;;16.54;20.22
81151;BME280;70629;-26.026;27.976;2023-07-31T11:02:26;87072.50;;;16.24;19.16
81151;BME280;70629;-26.026;27.976;2023-07-31T11:04:10;87075.50;;;16.67;19.03
81151;BME280;70629;-26.026;27.976;2023-07-31T11:05:52;87076.78;;;16.84;19.48
81151;BME280;70629;-26.026;27.976;2023-07-31T11:07:46;87071.75;;;16.77;18.32
81151;BME280;70629;-26.026;27.976;2023-07-31T11:09:22;87071.63;;;16.37;18.05
81151;BME280;70629;-26.026;27.976;2023-07-31T11:12:38;87065.72;;;16.25;18.79
81151;BME280;70629;-26.026;27.976;2023-07-31T11:14:13;87059.19;;;16.67;19.36
81151;BME280;70629;-26.026;27.976;2023-07-31T11:15:48;87066.34;;;16.59;19.10
81151;BME280;70629;-26.026;27.976;2023-07-31T11:17:25;87063.88;;;16.65;19.83
81151;BME280;70629;-26.026;27.976;2023-07-31T11:19:00;87055.56;;;16.61;19.29
81151;BME280;70629;-26.026;27.976;2023-07-31T11:20:37;87058.47;;;17.04;19.34
81151;BME280;70629;-26.026;27.976;2023-07-31T11:22:12;87061.63;;;17.17;19.24
81151;BME280;70629;-26.026;27.976;2023-07-31T11:23:53;87065.22;;;16.84;18.05
81151;BME280;70629;-26.026;27.976;2023-07-31T11:25:31;87054.69;;;16.56;18.16
81151;BME280;70629;-26.026;27.976;2023-07-31T11:27:07;87051.97;;;16.56;18.88
81151;BME280;70629;-26.026;27.976;2023-07-31T11:28:45;87052.31;;;16.64;19.04
81151;BME280;70629;-26.026;27.976;2023-07-31T11:30:20;87042.06;;;16.63;19.09
81151;BME280;70629;-26.026;27.976;2023-07-31T11:31:55;87039.47;;;16.85;20.06
81151;BME280;70629;-26.026;27.976;2023-07-31T11:33:31;87034.53;;;16.61;20.52
81151;BME280;70629;-26.026;27.976;2023-07-31T11:35:06;87041.13;;;16.94;19.43
81151;BME280;70629;-26.026;27.976;2023-07-31T11:36:53;87035.69;;;16.94;19.65
81151;BME280;70629;-26.026;27.976;2023-07-31T11:38:34;87035.97;;;16.82;20.65
81151;BME280;70629;-26.026;27.976;2023-07-31T11:40:09;87038.63;;;16.80;19.20
81151;BME280;70629;-26.026;27.976;2023-07-31T11:41:45;87043.59;;;17.25;20.65
81151;BME280;70629;-26.026;27.976;2023-07-31T11:43:20;87037.28;;;16.26;19.95
81151;BME280;70629;-26.026;27.976;2023-07-31T11:44:56;87032.31;;;16.38;20.14
81151;BME280;70629;-26.026;27.976;2023-07-31T11:46:31;87025.28;;;16.68;20.78
81151;BME280;70629;-26.026;27.976;2023-07-31T11:48:07;87029.69;;;16.78;20.96
81151;BME280;70629;-26.026;27.976;2023-07-31T11:49:43;87026.81;;;16.74;20.56
81151;BME280;70629;-26.026;27.976;2023-07-31T11:51:21;87024.38;;;16.44;19.81
81151;BME280;70629;-26.026;27.976;2023-07-31T11:53:01;87018.94;;;16.62;20.75
81151;BME280;70629;-26.026;27.976;2023-07-31T11:54:38;87027.09;;;16.62;21.67
81151;BME280;70629;-26.026;27.976;2023-07-31T11:56:16;87028.28;;;16.77;21.29
81151;BME280;70629;-26.026;27.976;2023-07-31T11:57:52;87014.84;;;16.61;20.06
81151;BME280;70629;-26.026;27.976;2023-07-31T11:59:29;87018.44;;;16.67;20.61
81151;BME280;70629;-26.026;27.976;2023-07-31T12:01:05;87017.72;;;16.85;20.38
81151;BME280;70629;-26.026;27.976;2023-07-31T12:02:41;87015.84;;;16.52;21.12
81151;BME280;70629;-26.026;27.976;2023-07-31T12:04:17;87013.09;;;16.70;21.01
81151;BME280;70629;-26.026;27.976;2023-07-31T12:05:53;87015.81;;;16.70;19.85
81151;BME280;70629;-26.026;27.976;2023-07-31T12:07:43;87010.72;;;16.60;20.91
81151;BME280;70629;-26.026;27.976;2023-07-31T12:09:19;87015.09;;;16.32;20.67
81151;BME280;70629;-26.026;27.976;2023-07-31T12:10:54;87007.31;;;16.59;19.64
81151;BME280;70629;-26.026;27.976;2023-07-31T12:12:36;87016.81;;;16.78;19.68
81151;BME280;70629;-26.026;27.976;2023-07-31T12:14:27;87005.56;;;16.13;19.58
81151;BME280;70629;-26.026;27.976;2023-07-31T12:16:05;87009.75;;;16.16;20.31
81151;BME280;70629;-26.026;27.976;2023-07-31T12:17:40;87005.19;;;16.03;18.88
81151;BME280;70629;-26.026;27.976;2023-07-31T12:19:15;87006.50;;;16.02;19.43
81151;BME280;70629;-26.026;27.976;2023-07-31T12:21:20;87007.97;;;16.22;20.33
81151;BME280;70629;-26.026;27.976;2023-07-31T12:22:56;87011.22;;;16.19;20.17
81151;BME280;70629;-26.026;27.976;2023-07-31T12:24:34;87010.63;;;15.85;20.07
81151;BME280;70629;-26.026;27.976;2023-07-31T12:26:14;87005.13;;;16.01;19.81
81151;BME280;70629;-26.026;27.976;2023-07-31T12:27:50;87002.81;;;16.31;19.90
81151;BME280;70629;-26.026;27.976;2023-07-31T12:29:34;87012.56;;;16.55;19.39
81151;BME280;70629;-26.026;27.976;2023-07-31T12:31:20;87020.50;;;16.32;20.19
81151;BME280;70629;-26.026;27.976;2023-07-31T12:32:56;87014.50;;;16.53;20.42
81151;BME280;70629;-26.026;27.976;2023-07-31T12:34:31;87014.69;;;16.39;19.49
81151;BME280;70629;-26.026;27.976;2023-07-31T12:36:21;87013.31;;;16.20;19.62
81151;BME280;70629;-26.026;27.976;2023-07-31T12:37:57;87004.78;;;16.28;19.73
81151;BME280;70629;-26.026;27.976;2023-07-31T12:39:35;87008.63;;;16.41;20.15
81151;BME280;70629;-26.026;27.976;2023-07-31T12:41:11;86999.91;;;15.89;19.06
81151;BME280;70629;-26.026;27.976;2023-07-31T12:42:47;87007.75;;;15.99;19.20
81151;BME280;70629;-26.026;27.976;2023-07-31T12:44:22;87001.94;;;15.89;19.79
81151;BME280;70629;-26.026;27.976;2023-07-31T12:45:57;87004.16;;;16.12;19.66
81151;BME280;70629;-26.026;27.976;2023-07-31T12:47:32;87005.16;;;16.20;19.19
81151;BME280;70629;-26.026;27.976;2023-07-31T12:49:07;87007.66;;;16.14;19.46
81151;BME280;70629;-26.026;27.976;2023-07-31T12:50:42;87018.19;;;15.89;19.33
81151;BME280;70629;-26.026;27.976;2023-07-31T12:52:17;87007.66;;;15.97;20.35
81151;BME280;70629;-26.026;27.976;2023-07-31T12:53:52;87007.59;;;15.95;19.25
81151;BME280;70629;-26.026;27.976;2023-07-31T12:55:27;87014.34;;;15.76;20.32
81151;BME280;70629;-26.026;27.976;2023-07-31T12:57:02;87013.03;;;15.95;20.00
81151;BME280;70629;-26.026;27.976;2023-07-31T12:58:37;87014.03;;;16.03;19.52
81151;BME280;70629;-26.026;27.976;2023-07-31T13:00:12;87011.31;;;15.86;19.87
81151;BME280;70629;-26.026;27.976;2023-07-31T13:01:48;87011.00;;;16.13;20.05
81151;BME280;70629;-26.026;27.976;2023-07-31T13:03:23;87018.75;;;16.03;19.43
81151;BME280;70629;-26.026;27.976;2023-07-31T13:04:58;87013.56;;;15.91;20.35
81151;BME280;70629;-26.026;27.976;2023-07-31T13:06:33;87017.34;;;16.02;20.21
81151;BME280;70629;-26.026;27.976;2023-07-31T13:08:08;87014.97;;;16.10;20.13
81151;BME280;70629;-26.026;27.976;2023-07-31T13:09:43;87013.00;;;16.12;20.44
81151;BME280;70629;-26.026;27.976;2023-07-31T13:11:18;87010.59;;;16.03;21.05
81151;BME280;70629;-26.026;27.976;2023-07-31T13:12:53;87004.50;;;15.85;19.89
81151;BME280;70629;-26.026;27.976;2023-07-31T13:14:28;87013.41;;;16.05;20.18
81151;BME280;70629;-26.026;27.976;2023-07-31T13:16:03;87011.78;;;15.98;20.09
81151;BME280;70629;-26.026;27.976;2023-07-31T13:17:38;87012.94;;;15.93;19.72
81151;BME280;70629;-26.026;27.976;2023-07-31T13:19:13;87007.97;;;16.05;19.06
81151;BME280;70629;-26.026;27.976;2023-07-31T13:20:48;87016.66;;;16.01;19.52
81151;BME280;70629;-26.026;27.976;2023-07-31T13:22:23;87012.56;;;16.00;19.38
81151;BME280;70629;-26.026;27.976;2023-07-31T13:23:58;87015.97;;;16.01;19.28
81151;BME280;70629;-26.026;27.976;2023-07-31T13:25:35;87014.78;;;15.88;19.50
81151;BME280;70629;-26.026;27.976;2023-07-31T13:27:10;87015.34;;;15.67;19.43
81151;BME280;70629;-26.026;27.976;2023-07-31T13:28:45;87012.88;;;15.91;19.71
81151;BME280;70629;-26.026;27.976;2023-07-31T13:30:20;87016.41;;;15.77;19.25
81151;BME280;70629;-26.026;27.976;2023-07-31T13:31:55;87013.94;;;15.84;19.54
81151;BME280;70629;-26.026;27.976;2023-07-31T13:33:30;87012.78;;;15.71;20.09
81151;BME280;70629;-26.026;27.976;2023-07-31T13:35:11;87022.22;;;15.70;20.13
81151;BME280;70629;-26.026;27.976;2023-07-31T13:36:47;87016.25;;;15.73;20.29
81151;BME280;70629;-26.026;27.976;2023-07-31T13:38:22;87010.97;;;15.77;21.41
81151;BME280;70629;-26.026;27.976;2023-07-31T13:39:57;87010.06;;;15.53;20.09
81151;BME280;70629;-26.026;27.976;2023-07-31T13:41:32;87013.84;;;15.64;20.67
81151;BME280;70629;-26.026;27.976;2023-07-31T13:43:07;87015.78;;;15.61;19.68
81151;BME280;70629;-26.026;27.976;2023-07-31T13:44:42;87022.44;;;15.58;20.24
81151;BME280;70629;-26.026;27.976;2023-07-31T13:46:17;87015.88;;;15.30;19.98
81151;BME280;70629;-26.026;27.976;2023-07-31T13:47:52;87015.66;;;15.42;20.15
81151;BME280;70629;-26.026;27.976;2023-07-31T13:49:28;87019.88;;;15.29;19.83
81151;BME280;70629;-26.026;27.976;2023-07-31T13:51:03;87023.00;;;15.39;19.88
81151;BME280;70629;-26.026;27.976;2023-07-31T13:52:38;87017.75;;;15.43;20.52
81151;BME280;70629;-26.026;27.976;2023-07-31T13:54:13;87010.44;;;15.30;20.97
81151;BME280;70629;-26.026;27.976;2023-07-31T13:55:51;87018.63;;;15.32;20.35
81151;BME280;70629;-26.026;27.976;2023-07-31T13:57:26;87019.44;;;15.34;20.53
81151;BME280;70629;-26.026;27.976;2023-07-31T13:59:01;87013.47;;;15.54;21.05
81151;BME280;70629;-26.026;27.976;2023-07-31T14:00:36;87016.09;;;15.52;21.28
81151;BME280;70629;-26.026;27.976;2023-07-31T14:02:11;87020.59;;;15.29;22.15
81151;BME280;70629;-26.026;27.976;2023-07-31T14:03:47;87013.53;;;15.40;20.70
81151;BME280;70629;-26.026;27.976;2023-07-31T14:05:23;87010.91;;;15.42;20.57
81151;BME280;70629;-26.026;27.976;2023-07-31T14:06:58;87012.91;;;15.24;21.30
81151;BME280;70629;-26.026;27.976;2023-07-31T14:08:33;87012.56;;;15.16;21.54
81151;BME280;70629;-26.026;27.976;2023-07-31T14:10:09;87012.09;;;15.21;22.70
81151;BME280;70629;-26.026;27.976;2023-07-31T14:11:44;87017.16;;;15.29;21.92
81151;BME280;70629;-26.026;27.976;2023-07-31T14:13:19;87018.38;;;15.26;22.00
81151;BME280;70629;-26.026;27.976;2023-07-31T14:14:54;87013.19;;;15.14;21.99
81151;BME280;70629;-26.026;27.976;2023-07-31T14:16:29;87018.31;;;15.24;22.85
81151;BME280;70629;-26.026;27.976;2023-07-31T14:18:03;87016.34;;;15.09;22.30
81151;BME280;70629;-26.026;27.976;2023-07-31T14:19:39;87020.56;;;14.96;22.24
81151;BME280;70629;-26.026;27.976;2023-07-31T14:21:14;87017.66;;;15.08;22.76
81151;BME280;70629;-26.026;27.976;2023-07-31T14:22:49;87023.50;;;15.02;22.70
81151;BME280;70629;-26.026;27.976;2023-07-31T14:24:24;87011.47;;;15.05;22.72
81151;BME280;70629;-26.026;27.976;2023-07-31T14:25:59;87017.22;;;14.98;22.50
81151;BME280;70629;-26.026;27.976;2023-07-31T14:27:34;87027.72;;;14.89;22.47
81151;BME280;70629;-26.026;27.976;2023-07-31T14:29:09;87022.56;;;14.96;23.50
81151;BME280;70629;-26.026;27.976;2023-07-31T14:30:44;87027.56;;;14.85;24.50
81151;BME280;70629;-26.026;27.976;2023-07-31T14:32:20;87031.50;;;14.82;24.43
81151;BME280;70629;-26.026;27.976;2023-07-31T14:33:55;87026.78;;;14.83;23.62
81151;BME280;70629;-26.026;27.976;2023-07-31T14:35:30;87029.94;;;14.77;23.23
81151;BME280;70629;-26.026;27.976;2023-07-31T14:37:06;87026.03;;;14.98;24.25
81151;BME280;70629;-26.026;27.976;2023-07-31T14:38:40;87038.66;;;14.91;23.68
81151;BME280;70629;-26.026;27.976;2023-07-31T14:40:15;87034.91;;;14.83;24.05
81151;BME280;70629;-26.026;27.976;2023-07-31T14:41:50;87034.38;;;14.86;23.15
81151;BME280;70629;-26.026;27.976;2023-07-31T14:43:25;87038.81;;;14.96;25.25
81151;BME280;70629;-26.026;27.976;2023-07-31T14:45:00;87035.16;;;14.58;23.15
81151;BME280;70629;-26.026;27.976;2023-07-31T14:46:35;87034.56;;;14.59;24.25
81151;BME280;70629;-26.026;27.976;2023-07-31T14:48:11;87034.09;;;14.65;24.30
81151;BME280;70629;-26.026;27.976;2023-07-31T14:49:46;87034.63;;;14.61;24.89
81151;BME280;70629;-26.026;27.976;2023-07-31T14:51:21;87039.34;;;14.61;24.68
81151;BME280;70629;-26.026;27.976;2023-07-31T14:52:56;87038.03;;;14.46;24.26
81151;BME280;70629;-26.026;27.976;2023-07-31T14:54:31;87035.53;;;14.50;24.27
81151;BME280;70629;-26.026;27.976;2023-07-31T14:56:06;87039.44;;;14.63;24.56
81151;BME280;70629;-26.026;27.976;2023-07-31T14:57:41;87042.94;;;14.49;24.82
81151;BME280;70629;-26.026;27.976;2023-07-31T14:59:16;87033.94;;;14.45;24.75
81151;BME280;70629;-26.026;27.976;2023-07-31T15:00:51;87037.84;;;14.42;23.99
81151;BME280;70629;-26.026;27.976;2023-07-31T15:02:26;87034.97;;;14.38;23.75
81151;BME280;70629;-26.026;27.976;2023-07-31T15:04:02;87040.31;;;14.22;24.02
81151;BME280;70629;-26.026;27.976;2023-07-31T15:05:37;87034.03;;;14.18;23.29
81151;BME280;70629;-26.026;27.976;2023-07-31T15:07:12;87036.66;;;14.31;23.59
81151;BME280;70629;-26.026;27.976;2023-07-31T15:08:48;87036.06;;;14.33;24.19
81151;BME280;70629;-26.026;27.976;2023-07-31T15:10:23;87035.19;;;14.28;23.73
81151;BME280;70629;-26.026;27.976;2023-07-31T15:11:58;87043.03;;;14.22;23.39
81151;BME280;70629;-26.026;27.976;2023-07-31T15:13:33;87047.47;;;14.16;23.52
81151;BME280;70629;-26.026;27.976;2023-07-31T15:15:08;87052.19;;;14.15;23.52